Time;durP1;ratioP1;P1;durP2;ratioP2;P2;SDS_P1;SDS_P2;PMS_P1;PMS_P2;Temp;Humidity;BMP_temperature;BMP_pressure;BME280_temperature;BME280_humidity;BME280_pressure;Samples;Min_cycle;Max_cycle;Signal;HPM_P1;HPM_P2
2021/04/11 00:01:26;;;;;;;;;;;19.70;57.40;;;;;;5071341;28;1068;-69
2021/04/11 00:03:51;;;;;;;;;;;19.70;57.40;;;;;;5071390;28;1102;-69
2021/04/11 00:06:17;;;;;;;;;;;19.70;57.40;;;;;;5071180;28;1906;-67
2021/04/11 00:08:42;;;;;;;;;;;19.60;57.40;;;;;;5070796;28;1355;-69
2021/04/11 00:11:07;;;;;;;;;;;19.70;57.50;;;;;;5071418;28;1087;-69
2021/04/11 00:13:34;;;;;;;;;;;19.70;57.50;;;;;;5070566;28;1059;-69
2021/04/11 00:15:59;;;;;;;;;;;19.60;57.40;;;;;;5053369;28;1068;-69
2021/04/11 00:18:25;;;;;;;;;;;19.60;57.40;;;;;;5052871;28;1365;-69
2021/04/11 00:20:50;;;;;;;;;;;19.60;57.50;;;;;;5070962;28;909;-69
2021/04/11 00:23:16;;;;;;;;;;;19.60;57.40;;;;;;5071789;28;1179;-69
2021/04/11 00:25:42;;;;;;;;;;;19.60;57.50;;;;;;5051341;28;2032;-69
2021/04/11 00:28:08;;;;;;;;;;;19.60;57.50;;;;;;5051387;28;1906;-69
2021/04/11 00:30:33;;;;;;;;;;;19.60;57.50;;;;;;5071166;28;1123;-69
2021/04/11 00:32:59;;;;;;;;;;;19.60;57.50;;;;;;5068029;28;1051;-69
2021/04/11 00:35:24;;;;;;;;;;;19.60;57.50;;;;;;5044757;28;1080;-69
2021/04/11 00:37:50;;;;;;;;;;;19.60;57.50;;;;;;5056343;28;1393;-69
2021/04/11 00:40:35;;;;;;;;;;;19.60;57.50;;;;;;5074652;28;1114;-69
2021/04/11 00:43:05;;;;;;;;;;;19.60;57.50;;;;;;5055692;28;1680;-68
2021/04/11 00:45:30;;;;;;;;;;;19.60;57.60;;;;;;5033794;28;1437;-68
2021/04/11 00:47:56;;;;;;;;;;;19.60;57.60;;;;;;5073818;28;1910;-68
2021/04/11 00:50:21;;;;;;;;;;;19.60;57.60;;;;;;5056499;28;1514;-68
2021/04/11 00:52:47;;;;;;;;;;;19.60;58.20;;;;;;5056402;28;1115;-69
2021/04/11 00:55:13;;;;;;;;;;;19.60;57.60;;;;;;5056369;28;1063;-69
2021/04/11 00:57:39;;;;;;;;;;;19.60;57.60;;;;;;5055910;28;1032;-70
2021/04/11 01:00:05;;;;;;;;;;;19.60;57.60;;;;;;5056422;28;1256;-69
2021/04/11 01:02:30;;;;;;;;;;;19.60;57.60;;;;;;5055979;28;1063;-69
2021/04/11 01:04:56;;;;;;;;;;;19.60;57.60;;;;;;5074226;28;1063;-69
2021/04/11 01:07:21;;;;;;;;;;;19.50;57.60;;;;;;5073852;28;1973;-69
2021/04/11 01:09:47;;;;;;;;;;;19.50;57.60;;;;;;5055714;28;1218;-69
2021/04/11 01:12:13;;;;;;;;;;;19.50;57.60;;;;;;5055855;28;1159;-69
2021/04/11 01:14:38;;;;;;;;;;;19.60;57.70;;;;;;5055105;28;1107;-69
2021/04/11 01:17:08;;;;;;;;;;;19.50;57.60;;;;;;5055314;28;1099;-69
2021/04/11 01:19:34;;;;;;;;;;;19.50;57.60;;;;;;5055405;28;1294;-69
2021/04/11 01:22:13;;;;;;;;;;;19.50;57.60;;;;;;5073638;28;1071;-69
2021/04/11 01:24:46;;;;;;;;;;;19.50;57.60;;;;;;5055468;28;1115;-69
2021/04/11 01:27:12;;;;;;;;;;;19.50;57.70;;;;;;5055214;28;1906;-69
2021/04/11 01:29:38;;;;;;;;;;;19.50;57.70;;;;;;5072987;28;1353;-69
2021/04/11 01:32:04;;;;;;;;;;;19.50;57.70;;;;;;5055550;28;1121;-69
2021/04/11 01:34:30;;;;;;;;;;;19.50;57.70;;;;;;5055249;28;1150;-69
2021/04/11 01:36:55;;;;;;;;;;;19.50;57.70;;;;;;5055397;28;1087;-69
2021/04/11 01:39:22;;;;;;;;;;;19.50;57.70;;;;;;5054734;28;1370;-69
2021/04/11 01:41:47;;;;;;;;;;;19.50;57.70;;;;;;5055299;28;1180;-69
2021/04/11 01:44:14;;;;;;;;;;;19.50;57.60;;;;;;5072957;28;1095;-69
2021/04/11 01:46:40;;;;;;;;;;;19.50;57.60;;;;;;5072261;28;1905;-69
2021/04/11 01:49:05;;;;;;;;;;;19.50;57.60;;;;;;5072513;28;1353;-69
2021/04/11 01:51:31;;;;;;;;;;;19.60;57.60;;;;;;5039585;28;1178;-69
2021/04/11 01:53:57;;;;;;;;;;;19.50;57.60;;;;;;5056493;28;1169;-69
2021/04/11 01:56:23;;;;;;;;;;;19.50;58.10;;;;;;5056317;28;1072;-69
2021/04/11 01:58:48;;;;;;;;;;;19.50;57.50;;;;;;5073351;28;1367;-69
2021/04/11 02:01:18;;;;;;;;;;;19.60;57.60;;;;;;5071027;28;1022;-69
2021/04/11 02:03:43;;;;;;;;;;;19.60;57.50;;;;;;5042798;28;1188;-69
2021/04/11 02:06:10;;;;;;;;;;;19.60;57.50;;;;;;5055205;28;1185;-69
2021/04/11 02:08:40;;;;;;;;;;;19.60;57.50;;;;;;5053616;28;1902;-69
2021/04/11 02:11:05;;;;;;;;;;;19.60;57.40;;;;;;5073779;28;1209;-69
2021/04/11 02:13:31;;;;;;;;;;;19.60;57.40;;;;;;5040960;28;1116;-69
2021/04/11 02:15:57;;;;;;;;;;;19.60;57.40;;;;;;5046706;28;1283;-67
2021/04/11 02:18:23;;;;;;;;;;;19.60;57.40;;;;;;5048760;28;1373;-69
2021/04/11 02:20:49;;;;;;;;;;;19.60;57.40;;;;;;5047357;28;1240;-69
2021/04/11 02:23:15;;;;;;;;;;;19.60;57.40;;;;;;5064521;28;1318;-69
2021/04/11 02:25:44;;;;;;;;;;;19.60;57.40;;;;;;5047735;28;1149;-69
2021/04/11 02:28:10;;;;;;;;;;;19.60;57.30;;;;;;5047503;28;1952;-69
2021/04/11 02:30:46;;;;;;;;;;;19.70;57.40;;;;;;5063789;28;1141;-69
2021/04/11 02:33:11;;;;;;;;;;;19.60;57.30;;;;;;5049202;28;1209;-69
2021/04/11 02:35:37;;;;;;;;;;;19.60;57.30;;;;;;5044345;28;1275;-69
2021/04/11 02:38:02;;;;;;;;;;;19.70;57.30;;;;;;5065873;28;1318;-69
2021/04/11 02:40:31;;;;;;;;;;;19.60;57.20;;;;;;5050419;28;1216;-69
2021/04/11 02:42:57;;;;;;;;;;;19.70;57.20;;;;;;5066419;28;1056;-70
2021/04/11 02:45:24;;;;;;;;;;;19.80;57.20;;;;;;5047722;28;1272;-69
2021/04/11 02:47:51;;;;;;;;;;;19.80;57.00;;;;;;5046040;28;1910;-69
2021/04/11 02:50:16;;;;;;;;;;;19.90;56.90;;;;;;5049644;28;1244;-69
2021/04/11 02:52:43;;;;;;;;;;;20.00;56.70;;;;;;5049703;28;1201;-69
2021/04/11 02:55:12;;;;;;;;;;;20.10;56.50;;;;;;5048059;28;1331;-69
2021/04/11 02:57:37;;;;;;;;;;;20.20;56.30;;;;;;5064226;28;1120;-70
2021/04/11 03:00:05;;;;;;;;;;;20.30;56.10;;;;;;5064982;28;1279;-70
2021/04/11 03:02:30;;;;;;;;;;;20.40;56.00;;;;;;5067263;28;1286;-68
2021/04/11 03:04:56;;;;;;;;;;;20.40;55.80;;;;;;5048018;28;1390;-69
2021/04/11 03:07:25;;;;;;;;;;;20.50;55.60;;;;;;5063874;28;1913;-69
2021/04/11 03:09:54;;;;;;;;;;;20.50;55.50;;;;;;5048792;28;1296;-69
2021/04/11 03:12:19;;;;;;;;;;;20.60;55.30;;;;;;5050528;28;1239;-68
2021/04/11 03:14:45;;;;;;;;;;;20.70;55.20;;;;;;5048224;28;1228;-69
2021/04/11 03:17:14;;;;;;;;;;;20.70;55.10;;;;;;5050515;28;1303;-69
2021/04/11 03:19:43;;;;;;;;;;;20.70;55.00;;;;;;5046083;28;1381;-69
2021/04/11 03:22:08;;;;;;;;;;;20.70;54.90;;;;;;5046767;28;1224;-69
2021/04/11 03:24:34;;;;;;;;;;;20.80;54.90;;;;;;5054694;28;1100;-69
2021/04/11 03:27:04;;;;;;;;;;;20.80;54.80;;;;;;5054691;28;1902;-69
2021/04/11 03:29:38;;;;;;;;;;;20.90;54.70;;;;;;5054522;28;1253;-68
2021/04/11 03:32:03;;;;;;;;;;;20.90;54.60;;;;;;5055024;28;1131;-69
2021/04/11 03:34:29;;;;;;;;;;;21.00;54.70;;;;;;5072594;28;1094;-69
2021/04/11 03:36:55;;;;;;;;;;;21.00;54.60;;;;;;5054857;28;1083;-69
2021/04/11 03:39:20;;;;;;;;;;;21.00;54.60;;;;;;5054217;28;1300;-69
2021/04/11 03:41:45;;;;;;;;;;;21.00;54.50;;;;;;5054805;28;1091;-69
2021/04/11 03:44:12;;;;;;;;;;;21.00;54.50;;;;;;5054676;28;1099;-69
2021/04/11 03:46:40;;;;;;;;;;;21.00;54.40;;;;;;5054678;28;1969;-69
2021/04/11 03:49:18;;;;;;;;;;;21.10;54.40;;;;;;5037270;28;1425;-69
2021/04/11 03:51:43;;;;;;;;;;;21.10;54.40;;;;;;5072741;28;1091;-69
2021/04/11 03:54:13;;;;;;;;;;;21.10;54.40;;;;;;5054643;28;1135;-70
2021/04/11 03:56:39;;;;;;;;;;;21.10;54.30;;;;;;5038146;28;1368;-69
2021/04/11 03:59:04;;;;;;;;;;;21.10;54.30;;;;;;5054356;28;1327;-68
2021/04/11 04:01:31;;;;;;;;;;;21.10;54.30;;;;;;5072535;28;1186;-68
2021/04/11 04:04:03;;;;;;;;;;;21.10;54.30;;;;;;5054793;28;1084;-68
2021/04/11 04:06:29;;;;;;;;;;;21.10;54.30;;;;;;5072593;28;1910;-68
2021/04/11 04:08:55;;;;;;;;;;;21.10;54.30;;;;;;5072281;28;1224;-68
2021/04/11 04:11:39;;;;;;;;;;;21.10;54.30;;;;;;5057899;28;1150;-70
2021/04/11 04:14:16;;;;;;;;;;;21.10;54.30;;;;;;5075167;28;1150;-68
2021/04/11 04:16:45;;;;;;;;;;;21.10;54.40;;;;;;5041446;28;1165;-69
2021/04/11 04:19:27;;;;;;;;;;;21.10;54.40;;;;;;5075763;28;1309;-69
2021/04/11 04:22:11;;;;;;;;;;;21.10;54.40;;;;;;5075824;28;1126;-69
2021/04/11 04:24:42;;;;;;;;;;;21.10;54.50;;;;;;5075672;28;1087;-68
2021/04/11 04:27:20;;;;;;;;;;;21.10;54.50;;;;;;5075582;28;1901;-69
2021/04/11 04:30:00;;;;;;;;;;;21.00;54.50;;;;;;5075609;28;1251;-69
2021/04/11 04:32:52;;;;;;;;;;;21.00;54.60;;;;;;5058319;28;1158;-69
2021/04/11 04:35:17;;;;;;;;;;;21.00;54.60;;;;;;5060920;28;1307;-69
2021/04/11 04:38:01;;;;;;;;;;;21.00;54.70;;;;;;5075531;28;1063;-69
2021/04/11 04:40:32;;;;;;;;;;;21.00;54.70;;;;;;5075799;28;1038;-69
2021/04/11 04:43:02;;;;;;;;;;;21.00;54.70;;;;;;5057581;28;1099;-69
2021/04/11 04:45:30;;;;;;;;;;;21.00;54.80;;;;;;5075428;28;1138;-69
2021/04/11 04:47:56;;;;;;;;;;;20.90;54.80;;;;;;5075243;28;1910;-69
2021/04/11 04:50:33;;;;;;;;;;;20.90;54.80;;;;;;5075922;28;1206;-69
2021/04/11 04:53:10;;;;;;;;;;;20.90;54.90;;;;;;5057593;28;1158;-69
2021/04/11 04:55:36;;;;;;;;;;;20.90;54.90;;;;;;5075465;28;1141;-69
2021/04/11 04:58:03;;;;;;;;;;;20.90;55.00;;;;;;5057037;28;1314;-69
2021/04/11 05:00:39;;;;;;;;;;;20.90;55.00;;;;;;5040715;28;1215;-69
2021/04/11 05:03:05;;;;;;;;;;;20.80;55.00;;;;;;5057410;28;1099;-69
2021/04/11 05:05:31;;;;;;;;;;;20.90;55.10;;;;;;5057402;28;1177;-69
2021/04/11 05:07:56;;;;;;;;;;;20.80;55.10;;;;;;5056850;28;1898;-69
2021/04/11 05:10:31;;;;;;;;;;;20.90;55.20;;;;;;5075092;28;812;-68
2021/04/11 05:13:00;;;;;;;;;;;20.80;55.10;;;;;;5057143;28;1112;-68
2021/04/11 05:15:45;;;;;;;;;;;20.90;55.10;;;;;;5075040;28;1033;-68
2021/04/11 05:18:12;;;;;;;;;;;20.90;55.10;;;;;;5071560;28;1172;-68
2021/04/11 05:20:39;;;;;;;;;;;20.90;55.00;;;;;;5064302;28;853;-68
2021/04/11 05:23:16;;;;;;;;;;;20.90;55.00;;;;;;5057052;28;1098;-69
2021/04/11 05:26:00;;;;;;;;;;;20.90;54.90;;;;;;5047570;28;1206;-69
2021/04/11 05:28:31;;;;;;;;;;;21.00;54.90;;;;;;5060886;28;1901;-69
2021/04/11 05:31:00;;;;;;;;;;;21.00;54.90;;;;;;5074788;28;1078;-68
2021/04/11 05:33:26;;;;;;;;;;;21.00;54.80;;;;;;5056787;28;1147;-68
2021/04/11 05:35:53;;;;;;;;;;;21.00;54.80;;;;;;5056815;28;1091;-68
2021/04/11 05:38:37;;;;;;;;;;;21.00;54.80;;;;;;5056741;28;1355;-68
2021/04/11 05:41:05;;;;;;;;;;;21.00;54.80;;;;;;5043331;28;1304;-68
2021/04/11 05:43:34;;;;;;;;;;;21.00;54.80;;;;;;5056753;28;823;-68
2021/04/11 05:46:15;;;;;;;;;;;21.00;54.80;;;;;;5056545;28;1115;-69
2021/04/11 05:48:48;;;;;;;;;;;21.00;54.90;;;;;;5073990;28;1906;-67
2021/04/11 05:51:14;;;;;;;;;;;21.00;54.90;;;;;;5045383;28;2130;-67
2021/04/11 05:53:41;;;;;;;;;;;21.00;54.90;;;;;;5043541;28;1902;-68
2021/04/11 05:56:09;;;;;;;;;;;20.90;54.90;;;;;;5049888;28;2236;-68
2021/04/11 05:58:40;;;;;;;;;;;20.90;54.90;;;;;;5047355;28;1372;-68
2021/04/11 06:01:05;;;;;;;;;;;20.90;55.00;;;;;;5048647;28;1134;-70
2021/04/11 06:03:31;;;;;;;;;;;20.90;55.00;;;;;;5073860;28;1266;-70
2021/04/11 06:05:56;;;;;;;;;;;20.90;55.00;;;;;;5055805;28;1177;-70
2021/04/11 06:08:36;;;;;;;;;;;20.90;55.10;;;;;;5071930;28;1914;-69
2021/04/11 06:11:21;;;;;;;;;;;20.90;55.10;;;;;;5054970;28;1408;-69
2021/04/11 06:13:48;;;;;;;;;;;20.90;55.10;;;;;;5055745;28;1115;-69
2021/04/11 06:16:18;;;;;;;;;;;20.90;55.20;;;;;;5055362;28;1136;-69
2021/04/11 06:18:50;;;;;;;;;;;20.80;55.10;;;;;;5054374;28;1308;-69
2021/04/11 06:21:32;;;;;;;;;;;20.80;55.20;;;;;;5054204;28;997;-68
2021/04/11 06:24:01;;;;;;;;;;;20.80;55.20;;;;;;5045687;28;1154;-69
2021/04/11 06:26:26;;;;;;;;;;;20.80;55.30;;;;;;5039492;28;1898;-70
2021/04/11 06:29:24;;;;;;;;;;;20.80;55.30;;;;;;5072147;28;1236;-71
2021/04/11 06:31:54;;;;;;;;;;;20.80;55.90;;;;;;5038142;28;1318;-69
2021/04/11 06:34:22;;;;;;;;;;;20.80;55.40;;;;;;5053638;28;1139;-67
2021/04/11 06:36:48;;;;;;;;;;;20.80;55.40;;;;;;5071082;28;1051;-69
2021/04/11 06:39:18;;;;;;;;;;;20.80;55.50;;;;;;5053139;28;1545;-69
2021/04/11 06:42:03;;;;;;;;;;;20.70;55.40;;;;;;5053920;28;1092;-66
2021/04/11 06:44:38;;;;;;;;;;;20.70;55.50;;;;;;5072168;28;1195;-66
2021/04/11 06:47:06;;;;;;;;;;;20.70;55.50;;;;;;5072252;28;1959;-68
2021/04/11 06:50:11;;;;;;;;;;;20.70;55.50;;;;;;5054475;28;1319;-67
2021/04/11 06:52:41;;;;;;;;;;;20.70;55.60;;;;;;5010215;28;1324;-69
2021/04/11 06:55:09;;;;;;;;;;;20.70;55.60;;;;;;4993942;28;1038;-70
2021/04/11 06:57:43;;;;;;;;;;;20.60;55.60;;;;;;5012064;28;1616;-69
2021/04/11 07:00:09;;;;;;;;;;;20.70;55.70;;;;;;5045887;28;1236;-70
2021/04/11 07:02:53;;;;;;;;;;;20.60;55.70;;;;;;5064019;28;1015;-70
2021/04/11 07:05:23;;;;;;;;;;;20.60;55.80;;;;;;5068439;28;1072;-69
2021/04/11 07:08:09;;;;;;;;;;;20.60;55.80;;;;;;5053018;28;1898;-69
2021/04/11 07:10:50;;;;;;;;;;;20.60;55.80;;;;;;5054508;28;1095;-70
2021/04/11 07:13:15;;;;;;;;;;;20.60;55.80;;;;;;5071574;28;1150;-69
2021/04/11 07:15:47;;;;;;;;;;;20.50;55.80;;;;;;5072148;28;1087;-69
2021/04/11 07:18:12;;;;;;;;;;;20.50;55.80;;;;;;5071485;28;1249;-68
2021/04/11 07:20:46;;;;;;;;;;;20.50;55.90;;;;;;5072222;28;1158;-69
2021/04/11 07:23:17;;;;;;;;;;;20.50;55.90;;;;;;5054744;28;1116;-69
2021/04/11 07:26:21;;;;;;;;;;;20.50;55.90;;;;;;5054450;28;1206;-70
2021/04/11 07:28:52;;;;;;;;;;;20.50;55.90;;;;;;4989629;28;1898;-70
2021/04/11 07:31:29;;;;;;;;;;;20.50;56.50;;;;;;4991234;28;1140;-70
2021/04/11 07:34:04;;;;;;;;;;;20.50;56.00;;;;;;5038254;28;1221;-70
2021/04/11 07:36:29;;;;;;;;;;;20.40;56.00;;;;;;5072669;28;1056;-70
2021/04/11 07:39:04;;;;;;;;;;;20.40;56.00;;;;;;5072172;28;1253;-71
2021/04/11 07:41:35;;;;;;;;;;;20.40;56.00;;;;;;5054960;28;1421;-70
2021/04/11 07:44:13;;;;;;;;;;;20.40;56.00;;;;;;5072644;28;1181;-71
2021/04/11 07:46:43;;;;;;;;;;;20.40;56.00;;;;;;5041532;28;1981;-70
2021/04/11 07:49:27;;;;;;;;;;;20.40;56.10;;;;;;5041979;28;1239;-70
2021/04/11 07:51:55;;;;;;;;;;;20.40;56.10;;;;;;5076826;28;1082;-70
2021/04/11 07:54:39;;;;;;;;;;;20.40;56.10;;;;;;5058909;28;1249;-70
2021/04/11 07:57:13;;;;;;;;;;;20.40;56.20;;;;;;5076374;28;1055;-70
2021/04/11 07:59:50;;;;;;;;;;;20.40;56.20;;;;;;5058682;28;1225;-70
2021/04/11 08:02:19;;;;;;;;;;;20.40;56.20;;;;;;5076858;28;1127;-70
2021/04/11 08:04:54;;;;;;;;;;;20.40;56.20;;;;;;5058844;28;1063;-70
2021/04/11 08:07:24;;;;;;;;;;;20.40;56.80;;;;;;5076058;28;1906;-70
2021/04/11 08:09:59;;;;;;;;;;;20.30;56.20;;;;;;5058423;28;1282;-70
2021/04/11 08:12:33;;;;;;;;;;;20.30;56.20;;;;;;5058479;28;1030;-70
2021/04/11 08:15:18;;;;;;;;;;;20.30;56.30;;;;;;5072107;28;1987;-70
2021/04/11 08:17:51;;;;;;;;;;;20.30;56.30;;;;;;5041156;28;1480;-70
2021/04/11 08:20:16;;;;;;;;;;;20.30;56.40;;;;;;5049015;28;1132;-70
2021/04/11 08:22:51;;;;;;;;;;;20.30;56.40;;;;;;5069486;28;1081;-70
2021/04/11 08:25:35;;;;;;;;;;;20.30;56.40;;;;;;5052319;28;1421;-70
2021/04/11 08:30:46;;;;;;;;;;;20.30;56.40;;;;;;5068631;22;2156;-67
2021/04/11 08:33:21;;;;;;;;;;;20.30;56.50;;;;;;5055380;28;1478;-67
2021/04/11 08:36:05;;;;;;;;;;;20.30;56.50;;;;;;5055821;28;1342;-67
2021/04/11 08:38:49;;;;;;;;;;;20.30;56.50;;;;;;5055594;28;1669;-67
2021/04/11 08:41:21;;;;;;;;;;;20.20;56.50;;;;;;5055823;28;1438;-66
2021/04/11 08:44:16;;;;;;;;;;;20.20;56.50;;;;;;5037983;28;1376;-67
2021/04/11 08:47:14;;;;;;;;;;;20.30;56.60;;;;;;5046262;28;1906;-67
2021/04/11 08:49:40;;;;;;;;;;;20.20;56.50;;;;;;5020812;28;1423;-66
2021/04/11 08:52:24;;;;;;;;;;;20.20;56.60;;;;;;5055607;28;1519;-66
2021/04/11 08:55:03;;;;;;;;;;;20.20;56.60;;;;;;5037737;28;1381;-67
2021/04/11 08:57:44;;;;;;;;;;;20.20;56.60;;;;;;5036404;28;1680;-68
2021/04/11 09:00:13;;;;;;;;;;;20.20;56.60;;;;;;5045993;28;1565;-67
2021/04/11 09:02:44;;;;;;;;;;;20.20;56.60;;;;;;5037525;28;1049;-66
2021/04/11 09:05:13;;;;;;;;;;;20.20;56.60;;;;;;5053392;28;1283;-68
2021/04/11 09:07:57;;;;;;;;;;;20.10;56.60;;;;;;5025120;28;1962;-68
2021/04/11 09:10:28;;;;;;;;;;;20.10;56.60;;;;;;5055159;28;1452;-67
2021/04/11 09:13:02;;;;;;;;;;;20.20;56.70;;;;;;5037433;28;1669;-68
2021/04/11 09:15:33;;;;;;;;;;;20.10;56.70;;;;;;5033768;28;1291;-69
2021/04/11 09:18:02;;;;;;;;;;;20.10;56.70;;;;;;5028926;28;1433;-66
2021/04/11 09:20:46;;;;;;;;;;;20.10;56.70;;;;;;5047753;28;1231;-66
2021/04/11 09:23:12;;;;;;;;;;;20.10;56.80;;;;;;5052834;28;1298;-66
2021/04/11 09:25:37;;;;;;;;;;;20.10;56.80;;;;;;5036664;28;1325;-69
2021/04/11 09:28:10;;;;;;;;;;;20.10;56.80;;;;;;5036458;28;1930;-68
2021/04/11 09:30:46;;;;;;;;;;;20.10;56.80;;;;;;5036904;28;1383;-68
2021/04/11 09:33:15;;;;;;;;;;;20.10;56.80;;;;;;5036787;28;1739;-68
2021/04/11 09:35:41;;;;;;;;;;;20.10;56.80;;;;;;5054907;28;1398;-67
2021/04/11 09:38:08;;;;;;;;;;;20.10;56.90;;;;;;5036645;28;1289;-68
2021/04/11 09:40:51;;;;;;;;;;;20.10;56.90;;;;;;5054656;28;1470;-68
2021/04/11 09:43:31;;;;;;;;;;;20.10;56.90;;;;;;5036489;28;1385;-67
2021/04/11 09:46:04;;;;;;;;;;;20.10;56.90;;;;;;5036629;28;1683;-68
2021/04/11 09:48:39;;;;;;;;;;;20.10;56.90;;;;;;5036313;28;1972;-67
2021/04/11 09:51:04;;;;;;;;;;;20.10;56.90;;;;;;5036797;28;1726;-68
2021/04/11 09:53:50;;;;;;;;;;;20.00;56.90;;;;;;5036526;28;1660;-68
2021/04/11 09:56:34;;;;;;;;;;;20.10;57.00;;;;;;5054306;28;1374;-68
2021/04/11 09:59:07;;;;;;;;;;;20.00;56.90;;;;;;5053729;28;1693;-68
2021/04/11 10:01:53;;;;;;;;;;;20.10;57.00;;;;;;5036374;28;1621;-68
2021/04/11 10:04:37;;;;;;;;;;;20.00;56.90;;;;;;5030295;28;1365;-68
2021/04/11 10:07:28;;;;;;;;;;;20.00;56.90;;;;;;5038165;28;1969;-66
2021/04/11 10:10:13;;;;;;;;;;;20.00;57.00;;;;;;5026424;28;1644;-67
2021/04/11 10:12:50;;;;;;;;;;;20.00;57.60;;;;;;5053846;28;1290;-69
2021/04/11 10:15:15;;;;;;;;;;;20.00;57.00;;;;;;5053965;28;1504;-70
2021/04/11 10:18:00;;;;;;;;;;;20.00;57.00;;;;;;5053519;28;1347;-69
2021/04/11 10:20:26;;;;;;;;;;;20.00;57.00;;;;;;5053723;28;1409;-69
2021/04/11 10:22:56;;;;;;;;;;;20.00;57.00;;;;;;5035934;28;1434;-68
2021/04/11 10:25:21;;;;;;;;;;;20.00;57.00;;;;;;5036102;28;1603;-69
2021/04/11 10:27:56;;;;;;;;;;;20.00;57.00;;;;;;5053135;28;1965;-69
2021/04/11 10:30:21;;;;;;;;;;;20.00;57.00;;;;;;5053652;28;1274;-71
2021/04/11 10:32:51;;;;;;;;;;;20.00;57.00;;;;;;5036052;28;1495;-70
2021/04/11 10:35:24;;;;;;;;;;;20.00;57.00;;;;;;5035938;28;1296;-71
2021/04/11 10:37:54;;;;;;;;;;;20.00;57.00;;;;;;5035150;28;1501;-71
2021/04/11 10:40:42;;;;;;;;;;;20.00;57.00;;;;;;5035750;28;1298;-71
2021/04/11 10:43:11;;;;;;;;;;;20.00;57.00;;;;;;5015749;28;1418;-70
2021/04/11 10:45:38;;;;;;;;;;;20.00;57.00;;;;;;5029742;28;1359;-71
2021/04/11 10:48:13;;;;;;;;;;;20.00;57.10;;;;;;5036019;28;2078;-70
2021/04/11 10:50:46;;;;;;;;;;;20.00;57.10;;;;;;5048018;28;1611;-71
2021/04/11 10:53:30;;;;;;;;;;;20.00;57.10;;;;;;5042185;28;1657;-70
2021/04/11 10:56:04;;;;;;;;;;;20.00;57.10;;;;;;5053241;28;1250;-70
2021/04/11 10:58:36;;;;;;;;;;;20.00;57.10;;;;;;5049503;28;2035;-70
2021/04/11 11:01:14;;;;;;;;;;;19.90;57.00;;;;;;5039554;28;1578;-68
2021/04/11 11:03:58;;;;;;;;;;;20.00;57.10;;;;;;5048981;28;1629;-70
2021/04/11 11:06:42;;;;;;;;;;;20.00;57.10;;;;;;5035336;28;1473;-70
2021/04/11 11:09:24;;;;;;;;;;;20.00;57.10;;;;;;5052624;28;1758;-70
2021/04/11 11:12:16;;;;;;;;;;;19.90;57.00;;;;;;5018637;28;1596;-70
2021/04/11 11:15:11;;;;;;;;;;;20.00;57.10;;;;;;5033252;28;1969;-69
2021/04/11 11:17:54;;;;;;;;;;;19.90;57.10;;;;;;5038051;28;1992;-69
2021/04/11 11:20:24;;;;;;;;;;;19.90;57.10;;;;;;5040920;28;1892;-69
2021/04/11 11:23:14;;;;;;;;;;;19.90;57.10;;;;;;5038473;28;1379;-69
2021/04/11 11:25:43;;;;;;;;;;;19.90;57.10;;;;;;5012962;28;1614;-69
2021/04/11 11:28:27;;;;;;;;;;;19.90;57.10;;;;;;5045257;28;1961;-69
2021/04/11 11:31:13;;;;;;;;;;;19.90;57.10;;;;;;5040326;28;1389;-69
2021/04/11 11:33:52;;;;;;;;;;;19.90;57.10;;;;;;5048063;28;1879;-69
2021/04/11 11:36:23;;;;;;;;;;;19.90;57.10;;;;;;5027495;28;1326;-69
2021/04/11 11:38:50;;;;;;;;;;;19.90;57.10;;;;;;5009529;28;1719;-69
2021/04/11 11:41:23;;;;;;;;;;;19.90;57.20;;;;;;5033516;28;1493;-69
2021/04/11 11:44:00;;;;;;;;;;;19.90;57.20;;;;;;5033865;28;1552;-70
2021/04/11 11:46:29;;;;;;;;;;;19.90;57.20;;;;;;5033141;28;1225;-68
2021/04/11 11:48:54;;;;;;;;;;;19.90;57.20;;;;;;5033242;28;1902;-69
2021/04/11 11:51:52;;;;;;;;;;;19.90;57.30;;;;;;5051451;28;1605;-69
2021/04/11 11:54:19;;;;;;;;;;;19.90;57.30;;;;;;5024410;28;1716;-69
2021/04/11 11:56:46;;;;;;;;;;;19.90;57.30;;;;;;5033426;28;1387;-69
2021/04/11 11:59:19;;;;;;;;;;;19.80;57.30;;;;;;5033246;28;1350;-68
2021/04/11 12:01:52;;;;;;;;;;;19.90;57.30;;;;;;5033553;28;1649;-70
2021/04/11 12:04:43;;;;;;;;;;;19.80;57.30;;;;;;5033723;28;1677;-69
2021/04/11 12:07:12;;;;;;;;;;;19.80;57.30;;;;;;5048764;28;1906;-69
2021/04/11 12:09:41;;;;;;;;;;;19.80;57.30;;;;;;5051348;28;1205;-69
2021/04/11 12:12:18;;;;;;;;;;;19.80;57.30;;;;;;5033542;28;1634;-69
2021/04/11 12:14:53;;;;;;;;;;;19.80;57.30;;;;;;5033544;28;1477;-69
2021/04/11 12:17:37;;;;;;;;;;;19.80;57.30;;;;;;5033228;28;1671;-67
2021/04/11 12:20:21;;;;;;;;;;;19.80;57.30;;;;;;5051240;28;1311;-69
2021/04/11 12:22:48;;;;;;;;;;;19.80;57.40;;;;;;5051088;28;1509;-68
2021/04/11 12:25:18;;;;;;;;;;;19.80;57.40;;;;;;5019239;28;1798;-69
2021/04/11 12:27:44;;;;;;;;;;;19.80;57.40;;;;;;5033114;28;1973;-69
2021/04/11 12:30:11;;;;;;;;;;;19.80;57.40;;;;;;5033267;28;1319;-69
2021/04/11 12:32:49;;;;;;;;;;;19.80;57.40;;;;;;5054372;28;1484;-69
2021/04/11 12:35:40;;;;;;;;;;;19.80;57.40;;;;;;5055007;28;1288;-70
2021/04/11 12:38:26;;;;;;;;;;;19.80;57.40;;;;;;5039043;28;1610;-69
2021/04/11 12:40:58;;;;;;;;;;;19.80;57.40;;;;;;5054752;28;1440;-68
2021/04/11 12:43:40;;;;;;;;;;;19.80;57.50;;;;;;5037005;28;1672;-70
2021/04/11 12:46:14;;;;;;;;;;;19.80;57.50;;;;;;5036702;28;1664;-69
2021/04/11 12:48:54;;;;;;;;;;;19.80;57.50;;;;;;5016228;28;1961;-69
2021/04/11 12:51:22;;;;;;;;;;;19.80;57.50;;;;;;5042129;28;1383;-70
2021/04/11 12:53:58;;;;;;;;;;;19.70;57.50;;;;;;5036669;28;1503;-69
2021/04/11 12:56:24;;;;;;;;;;;19.70;57.50;;;;;;5036627;28;1703;-68
2021/04/11 12:58:54;;;;;;;;;;;19.70;57.50;;;;;;5036029;28;1421;-69
2021/04/11 13:01:21;;;;;;;;;;;19.70;57.50;;;;;;5036453;28;1257;-70
2021/04/11 13:03:53;;;;;;;;;;;19.70;57.60;;;;;;5036485;28;1358;-69
2021/04/11 13:06:20;;;;;;;;;;;19.70;57.60;;;;;;5042990;28;2219;-69
2021/04/11 13:09:04;;;;;;;;;;;19.70;57.60;;;;;;5037124;28;1951;-70
2021/04/11 13:11:48;;;;;;;;;;;19.70;57.60;;;;;;5051816;28;1855;-69
2021/04/11 13:14:31;;;;;;;;;;;19.70;57.60;;;;;;5054105;28;1554;-69
2021/04/11 13:17:00;;;;;;;;;;;19.70;57.60;;;;;;5053936;28;1639;-69
2021/04/11 13:19:26;;;;;;;;;;;19.70;57.60;;;;;;5053858;28;1678;-69
2021/04/11 13:21:56;;;;;;;;;;;19.70;57.60;;;;;;5035957;28;1722;-68
2021/04/11 13:24:22;;;;;;;;;;;19.70;57.70;;;;;;5036334;28;1720;-67
2021/04/11 13:26:49;;;;;;;;;;;19.70;57.70;;;;;;5035936;28;1898;-68
2021/04/11 13:29:15;;;;;;;;;;;19.70;57.70;;;;;;5035762;28;1591;-69
2021/04/11 13:31:42;;;;;;;;;;;19.70;57.70;;;;;;5053668;28;1546;-70
2021/04/11 13:34:11;;;;;;;;;;;19.70;57.70;;;;;;5035834;28;1670;-69
2021/04/11 13:36:39;;;;;;;;;;;19.70;57.70;;;;;;5035598;28;1394;-70
2021/04/11 13:39:09;;;;;;;;;;;19.70;57.70;;;;;;5035516;28;1593;-70
2021/04/11 13:41:35;;;;;;;;;;;19.60;57.70;;;;;;5035633;28;1031;-70
2021/04/11 13:44:03;;;;;;;;;;;19.70;57.80;;;;;;5040186;28;1129;-69
2021/04/11 13:46:41;;;;;;;;;;;19.60;57.70;;;;;;5053506;28;1648;-70
2021/04/11 13:49:14;;;;;;;;;;;19.60;57.70;;;;;;5035030;28;1971;-70
2021/04/11 13:51:47;;;;;;;;;;;19.60;57.70;;;;;;5035708;28;1382;-69
2021/04/11 13:54:30;;;;;;;;;;;19.60;57.70;;;;;;5053402;28;1339;-70
2021/04/11 13:57:02;;;;;;;;;;;19.60;57.70;;;;;;5035475;28;1651;-69
2021/04/11 13:59:46;;;;;;;;;;;19.60;57.70;;;;;;5053076;28;1394;-70
2021/04/11 14:02:11;;;;;;;;;;;19.60;57.70;;;;;;5053164;28;1640;-70
2021/04/11 14:04:40;;;;;;;;;;;19.60;57.80;;;;;;5053374;28;1568;-67
2021/04/11 14:07:31;;;;;;;;;;;19.60;57.80;;;;;;5039440;28;1894;-67
2021/04/11 14:10:03;;;;;;;;;;;19.60;57.80;;;;;;5050478;28;1380;-68
2021/04/11 14:12:32;;;;;;;;;;;19.60;57.80;;;;;;5035332;28;1641;-67
2021/04/11 14:15:04;;;;;;;;;;;19.60;57.80;;;;;;5035540;28;1593;-68
2021/04/11 14:17:32;;;;;;;;;;;19.60;57.80;;;;;;5034751;28;1141;-67
2021/04/11 14:20:11;;;;;;;;;;;19.60;57.80;;;;;;5035010;28;1660;-68
2021/04/11 14:22:44;;;;;;;;;;;19.60;57.80;;;;;;5015053;28;1649;-68
2021/04/11 14:25:12;;;;;;;;;;;19.60;57.80;;;;;;5033879;28;1621;-67
2021/04/11 14:27:42;;;;;;;;;;;19.60;57.80;;;;;;5052442;28;1937;-68
2021/04/11 14:30:37;;;;;;;;;;;19.60;57.80;;;;;;5055659;22;3842;-69
2021/04/11 14:33:17;;;;;;;;;;;19.60;57.90;;;;;;5031813;28;1377;-70
2021/04/11 14:36:03;;;;;;;;;;;19.60;57.90;;;;;;5051523;28;918;-71
2021/04/11 14:38:40;;;;;;;;;;;19.60;57.90;;;;;;5041303;28;1578;-68
2021/04/11 14:41:07;;;;;;;;;;;19.60;57.90;;;;;;5052482;28;1100;-70
2021/04/11 14:43:35;;;;;;;;;;;19.60;57.90;;;;;;5051436;28;1665;-70
2021/04/11 14:46:13;;;;;;;;;;;19.60;57.90;;;;;;5051045;28;1361;-70
2021/04/11 14:48:39;;;;;;;;;;;19.60;57.90;;;;;;5052177;28;1967;-70
2021/04/11 14:51:24;;;;;;;;;;;19.60;57.90;;;;;;5051289;28;851;-70
2021/04/11 14:53:52;;;;;;;;;;;19.50;57.90;;;;;;5051931;28;1702;-69
2021/04/11 14:56:27;;;;;;;;;;;19.60;57.90;;;;;;5051199;28;1567;-70
2021/04/11 14:58:59;;;;;;;;;;;19.50;57.90;;;;;;5050732;28;1364;-69
2021/04/11 15:01:43;;;;;;;;;;;19.50;57.90;;;;;;5034425;28;1345;-69
2021/04/11 15:04:18;;;;;;;;;;;19.50;57.90;;;;;;5052151;28;1572;-69